Latest Coastal Weather Observations for Norah Head

IDN60701

Issued at 11:41 pm EST Saturday 4 July 2015 (issued every 10 minutes, with the page automatically refreshed every 10 minutes)

About coastal observations | Map of coastal stations | Coastal observations for NSW | Marine services | Other Formats
Station Details ID: 061366 Name: NORAH HEAD AWS Lat: -33.28 Lon: 151.58 Height: 18.8 m
Data from the previous 72 hours. | See also: Recent months at Norah Head
Date/Time
EST
Temp

°C
Wind Pressure Rain
since 9am
mm
Weather Cloud Vis
km
Sea
Height
m
Swell
Dir
 
Speed
knots
Gust
knots
hPa Trend Height
m
Period
s
Dir
04/11:30pm 9.7 W 9 11 1021.4 - 0.0 - - - - - - -
04/11:00pm 9.7 W 9 10 1021.5 - 0.0 - - - - - - -
04/10:30pm 10.4 W 7 9 1021.5 - 0.0 - - - - - - -
04/10:00pm 11.0 W 8 9 1021.6 - 0.0 - - - - - - -
04/09:30pm 11.6 W 7 9 1021.7 - 0.0 - - - - - - -
04/09:00pm 11.1 W 8 9 1021.8 - 0.0 - - - - - - -
04/08:30pm 11.1 W 7 8 1021.8 - 0.0 - - - - - - -
04/08:00pm 11.5 WSW 6 9 1021.8 - 0.0 - - - - - - -
04/07:30pm 12.0 W 6 7 1021.7 - 0.0 - - - - - - -
04/07:00pm 12.7 WSW 4 7 1021.6 - 0.0 - - - - - - -
04/06:30pm 13.9 S 5 7 1021.3 - 0.0 - - - - - - -
04/06:00pm 13.9 S 6 9 1021.0 - 0.0 - - - - - - -
04/05:30pm 13.7 S 8 11 1020.8 - 0.0 - - - - - - -
04/05:00pm 13.7 S 7 10 1020.7 - 0.0 - - - - - - -
04/04:30pm 14.1 S 8 11 1020.3 - 0.0 - - - - - - -
04/04:00pm 14.3 S 7 10 1020.2 - 0.0 - - - - - - -
04/03:30pm 15.1 SSW 5 10 1020.1 - 0.0 - - - - - - -
04/03:00pm 15.6 SW 3 5 1019.9 - 0.0 - - - - - - -
04/02:30pm 16.6 W 3 7 1019.5 - 0.0 - - - - - - -
04/02:00pm 16.1 WNW 4 7 1019.4 - 0.0 - - - - - - -
04/01:30pm 16.4 W 4 10 1019.6 - 0.0 - - - - - - -
04/01:00pm 16.3 W 5 10 1020.0 - 0.0 - - - - - - -
04/12:30pm 15.9 W 6 13 1020.2 - 0.0 - - - - - - -
04/12:00pm 15.7 WNW 6 11 1020.5 - 0.0 - - - - - - -
04/11:30am 15.3 WNW 5 12 1021.5 - 0.0 - - - - - - -
04/11:00am 14.7 NW 4 8 1021.9 - 0.0 - - - - - - -
04/10:30am 14.9 NNW 4 6 1022.4 - 0.0 - - - - - - -
04/10:00am 14.1 NNW 4 5 1022.5 - 0.0 - - - - - - -
04/09:00am 9.0 NW 3 5 1022.6 - 0.0 - - - - - - -
04/08:30am 8.1 NW 3 5 1022.5 - 0.0 - - - - - - -
04/08:00am 7.9 NNW 5 6 1022.6 - 0.0 - - - - - - -
04/07:30am 7.9 NNW 6 7 1022.5 - 0.0 - - - - - - -
04/07:00am 7.8 NNW 7 9 1022.6 - 0.0 - - - - - - -
04/06:30am 7.2 NW 4 8 1022.7 - 0.0 - - - - - - -
04/06:00am 7.4 NW 5 8 1022.7 - 0.0 - - - - - - -
04/05:30am 7.7 NNW 5 8 1022.1 - 0.0 - - - - - - -
04/05:00am 7.1 NW 4 6 1022.5 - 0.0 - - - - - - -
04/04:30am 7.2 WNW 4 7 1022.5 - 0.0 - - - - - - -
04/04:00am 7.7 WNW 5 7 1022.9 - 0.0 - - - - - - -
04/03:30am 8.4 WNW 6 10 1023.0 - 0.0 - - - - - - -
04/03:00am 9.1 WNW 4 6 1023.2 - 0.0 - - - - - - -
04/02:30am 9.4 WNW 3 5 1023.4 - 0.0 - - - - - - -
04/02:00am 9.8 WNW 4 7 1023.6 - 0.0 - - - - - - -
04/01:30am 9.9 WNW 5 7 1024.0 - 0.0 - - - - - - -
04/01:00am 9.8 WNW 4 6 1024.1 - 0.0 - - - - - - -
04/12:30am 9.8 W 4 5 1024.3 - 0.0 - - - - - - -
04/12:00am 10.1 W 5 6 1024.7 - 0.0 - - - - - - -
 
Date/Time
EST
Temp

°C
Wind Pressure Rain
since 9am
mm
Weather Cloud Vis
km
Sea
Height
m
Swell
Dir
 
Speed
knots
Gust
knots
hPa Trend Height
m
Period
s
Dir
03/11:30pm 10.4 W 6 7 1024.8 - 0.0 - - - - - - -
03/11:00pm 10.2 W 6 7 1025.0 - 0.0 - - - - - - -
03/10:30pm 10.4 W 5 6 1025.2 - 0.0 - - - - - - -
03/10:00pm 10.9 W 3 4 1025.3 - 0.0 - - - - - - -
03/09:30pm 10.8 W 3 5 1025.4 - 0.0 - - - - - - -
03/09:00pm 11.1 W 3 4 1025.4 - 0.0 - - - - - - -
03/08:30pm 11.3 WSW 2 3 1025.5 - 0.0 - - - - - - -
03/08:00pm 11.6 W 3 4 1025.5 - 0.0 - - - - - - -
03/07:30pm 11.5 WSW 3 5 1025.5 - 0.0 - - - - - - -
03/07:00pm 12.0 WSW 4 5 1025.6 - 0.0 - - - - - - -
03/06:30pm 12.4 SW 2 4 1025.4 - 0.0 - - - - - - -
03/06:00pm 12.4 SW 3 5 1025.1 - 0.0 - - - - - - -
03/05:30pm 13.4 S 6 10 1024.9 - 0.0 - - - - - - -
03/05:00pm 13.4 SSW 6 9 1024.8 - 0.0 - - - - - - -
03/04:30pm 13.7 S 7 11 1024.6 - 0.0 - - - - - - -
03/04:00pm 13.8 SSW 10 14 1024.7 - 0.0 - - - - - - -
03/03:30pm 14.2 SSW 10 13 1024.6 - 0.0 - - - - - - -
03/03:00pm 14.3 SSW 12 18 1024.3 - 0.0 - - - - - - -
03/02:30pm 14.4 SSW 13 18 1024.3 - 0.0 - - - - - - -
03/02:00pm 14.8 SSW 13 19 1024.2 - 0.0 - - - - - - -
03/01:30pm 14.4 SSW 13 19 1024.5 - 0.0 - - - - - - -
03/01:00pm 14.2 SSW 14 21 1024.8 - 0.0 - - - - - - -
03/12:30pm 13.8 SSW 14 19 1025.2 - 0.0 - - - - - - -
03/12:00pm 13.4 SSW 13 19 1025.3 - 0.0 - - - - - - -
03/11:30am 13.1 SSW 12 19 1025.7 - 0.0 - - - - - - -
03/11:00am 13.0 SW 11 18 1026.0 - 0.0 - - - - - - -
03/10:30am 12.5 SSW 12 18 1025.8 - 0.0 - - - - - - -
03/10:00am 11.8 SW 7 13 1025.9 - 0.0 - - - - - - -
03/09:30am 11.0 WSW 9 16 1025.8 - 0.0 - - - - - - -
03/09:00am 10.5 SW 10 17 1025.5 - 0.0 - - - - - - -
03/08:30am 10.0 SW 11 17 1025.2 - 0.0 - - - - - - -
03/08:00am 9.2 WSW 9 15 1025.2 - 0.0 - - - - - - -
03/07:30am 8.5 WSW 10 15 1025.1 - 0.0 - - - - - - -
03/07:00am 8.2 WSW 7 12 1024.8 - 0.0 - - - - - - -
03/06:30am 8.2 WSW 8 13 1024.5 - 0.0 - - - - - - -
03/06:00am 8.1 WSW 8 12 1024.1 - 0.0 - - - - - - -
03/05:30am 8.5 WSW 9 14 1023.7 - 0.0 - - - - - - -
03/05:00am 8.2 SW 8 12 1023.6 - 0.0 - - - - - - -
03/04:30am 8.3 WSW 8 13 1023.5 - 0.0 - - - - - - -
03/04:00am 8.6 W 7 13 1023.2 - 0.0 - - - - - - -
03/03:30am 8.8 WSW 8 12 1023.2 - 0.0 - - - - - - -
03/03:00am 9.0 WSW 8 12 1023.3 - 0.0 - - - - - - -
03/02:30am 9.4 WSW 9 14 1023.1 - 0.0 - - - - - - -
03/02:00am 9.4 WSW 7 12 1023.4 - 0.0 - - - - - - -
03/01:30am 9.5 WSW 7 9 1023.4 - 0.0 - - - - - - -
03/01:00am 10.1 SW 8 15 1023.3 - 0.0 - - - - - - -
03/12:30am 10.2 SW 9 15 1023.1 - 0.0 - - - - - - -
03/12:00am 10.4 SW 9 15 1023.3 - 0.0 - - - - - - -
 
Date/Time
EST
Temp

°C
Wind Pressure Rain
since 9am
mm
Weather Cloud Vis
km
Sea
Height
m
Swell
Dir
 
Speed
knots
Gust
knots
hPa Trend Height
m
Period
s
Dir
02/11:30pm 10.9 SW 10 20 1023.3 - 0.0 - - - - - - -
02/11:00pm 11.6 SW 11 20 1023.2 - 0.0 - - - - - - -
02/10:30pm 11.4 SW 10 18 1023.1 - 0.0 - - - - - - -
02/10:00pm 12.1 SW 14 23 1022.7 - 0.0 - - - - - - -
02/09:30pm 11.9 SW 10 18 1022.4 - 0.0 - - - - - - -
02/09:00pm 12.1 SW 9 15 1022.2 - 0.0 - - - - - - -
02/08:30pm 12.6 SW 10 15 1021.8 - 0.0 - - - - - - -
02/08:00pm 12.6 SW 9 15 1021.2 - 0.0 - - - - - - -
02/07:30pm 12.8 WSW 9 15 1020.8 - 0.0 - - - - - - -
02/07:00pm 12.8 SW 6 11 1020.5 - 0.0 - - - - - - -
02/06:30pm 12.8 WSW 6 9 1019.8 - 0.0 - - - - - - -
02/06:00pm 13.2 WSW 6 10 1019.3 - 0.0 - - - - - - -
02/05:30pm 13.1 WNW 4 7 1018.5 - 0.0 - - - - - - -
02/05:00pm 13.8 WNW 5 9 1018.1 - 0.0 - - - - - - -
02/04:30pm 14.6 W 6 13 1017.5 - 0.0 - - - - - - -
02/04:00pm 15.2 W 6 11 1017.7 - 0.0 - - - - - - -
02/03:30pm 15.4 W 6 11 1017.5 - 0.0 - - - - - - -
02/03:00pm 15.5 W 6 11 1017.5 - 0.0 - - - - - - -
02/02:30pm 15.9 W 5 10 1017.5 - 0.0 - - - - - - -
02/02:00pm 15.4 W 8 15 1017.5 - 0.0 - - - - - - -
02/01:30pm 15.3 W 7 16 1017.6 - 0.0 - - - - - - -
02/01:00pm 15.1 W 8 14 1017.9 - 0.0 - - - - - - -
02/12:30pm 14.5 W 7 13 1018.4 - 0.0 - - - - - - -
02/12:00pm 14.1 W 8 14 1018.8 - 0.0 - - - - - - -
02/11:30am 13.8 W 7 14 1019.0 - 0.0 - - - - - - -
02/11:00am 13.1 W 6 14 1019.5 - 0.0 - - - - - - -
02/10:30am 12.4 W 5 11 1020.1 - 0.0 - - - - - - -
02/10:00am 11.5 WNW 5 10 1020.1 - 0.0 - - - - - - -
02/09:30am 10.0 WNW 4 9 1020.4 - 0.0 - - - - - - -
02/09:00am 9.3 WNW 6 11 1020.4 - 0.0 - - - - - - -
02/08:30am 8.1 WNW 5 9 1020.6 - 0.0 - - - - - - -
02/08:00am 6.9 WNW 5 9 1020.4 - 0.0 - - - - - - -
02/07:30am 6.8 WNW 5 8 1020.5 - 0.0 - - - - - - -
02/07:00am 7.0 WNW 5 8 1020.6 - 0.0 - - - - - - -
02/06:30am 7.3 WNW 5 8 1020.4 - 0.0 - - - - - - -
02/06:00am 7.3 W 3 6 1020.3 - 0.0 - - - - - - -
02/05:30am 7.5 WSW 5 7 1020.1 - 0.0 - - - - - - -
02/05:00am 7.8 WSW 4 6 1020.1 - 0.0 - - - - - - -
02/04:30am 7.8 WSW 4 6 1020.2 - 0.0 - - - - - - -
02/04:00am 8.1 W 5 7 1020.1 - 0.0 - - - - - - -
02/03:30am 8.4 SW 2 4 1020.3 - 0.0 - - - - - - -
02/03:00am 8.9 WSW 4 6 1020.5 - 0.0 - - - - - - -
02/02:30am 9.6 W 5 8 1020.5 - 0.0 - - - - - - -
02/02:00am 10.3 WNW 4 7 1020.6 - 0.0 - - - - - - -
02/01:30am 10.5 WNW 4 6 1020.6 - 0.0 - - - - - - -
02/01:00am 11.2 W 7 8 1020.8 - 0.0 - - - - - - -
02/12:30am 11.0 W 6 7 1021.2 - 0.0 - - - - - - -
02/12:00am 11.4 W 6 9 1021.9 - 0.0 - - - - - - -

Other Formats:

Comma delimited format used in spreadsheet applications
http://www.bom.gov.au/fwo/IDN60701/IDN60701.95770.axf

JavaScript Object Notation format (JSON) in row-major order
http://www.bom.gov.au/fwo/IDN60701/IDN60701.95770.json